Aviation Digital Data Service (ADDS)

Output produced by METARs form (0640 UTC 31 March 2015)
found at http://www.aviationweather.gov/adds/metars/
 
KATL 310523Z 3106/0112 32005KT P6SM SKC 
     FM311400 21005KT P6SM SCT040 
     FM311700 25009KT P6SM VCSH BKN040 
     PROB30 3119/3123 -TSRA BKN025CB 
     FM010200 26006KT P6SM SCT040 BKN150 
     FM010900 29005KT P6SM SCT012